createdAt,value
2018-01-11T04:32:35.677Z,93.90
2018-01-11T04:35:09.488Z,93.80
2018-01-11T04:37:43.885Z,93.90
2018-01-11T04:40:17.698Z,93.80
2018-01-11T04:42:52.128Z,93.90
2018-01-11T04:45:25.833Z,93.90
2018-01-11T04:47:59.540Z,93.80
2018-01-11T04:50:33.329Z,93.80
2018-01-11T04:53:07.844Z,93.60
2018-01-11T04:55:41.687Z,93.60
2018-01-11T04:58:35.180Z,93.70
2018-01-11T05:01:09.300Z,93.50
2018-01-11T05:03:43.032Z,93.50
2018-01-11T05:06:17.008Z,93.60
2018-01-11T05:08:51.672Z,93.70
2018-01-11T05:11:26.145Z,93.80
2018-01-11T05:13:59.893Z,93.80
2018-01-11T05:16:33.709Z,93.70
2018-01-11T05:19:08.339Z,94.00
2018-01-11T05:21:42.881Z,94.10
2018-01-11T05:24:16.659Z,94.10
2018-01-11T05:26:51.483Z,94.20
2018-01-11T05:29:25.236Z,94.20
2018-01-11T05:31:59.336Z,94.40
2018-01-11T05:34:33.036Z,94.30
2018-01-11T05:37:06.880Z,94.40
2018-01-11T05:39:40.701Z,94.40
2018-01-11T05:42:15.354Z,94.10
2018-01-11T05:44:49.091Z,94.10
2018-01-11T05:47:23.703Z,94.10
2018-01-11T05:49:57.435Z,94.10
2018-01-11T05:52:31.103Z,94.00
2018-01-11T05:55:04.947Z,94.00
2018-01-11T05:57:38.712Z,94.00
2018-01-11T06:00:12.567Z,94.10
2018-01-11T06:02:46.268Z,93.90
2018-01-11T06:05:20.048Z,93.80
2018-01-11T06:07:54.630Z,93.90
2018-01-11T06:10:28.517Z,93.90
2018-01-11T06:13:03.208Z,94.00
2018-01-11T06:15:36.832Z,94.00
2018-01-11T06:18:13.060Z,94.40
2018-01-11T06:20:47.627Z,94.00
2018-01-11T06:23:21.411Z,94.00
2018-01-11T06:25:55.240Z,93.90
2018-01-11T06:28:29.595Z,94.30
2018-01-11T06:31:04.144Z,94.90
2018-01-11T06:33:37.975Z,94.80
2018-01-11T06:36:11.888Z,95.20
2018-01-11T06:38:45.745Z,94.90
2018-01-11T06:41:20.292Z,93.40
2018-01-11T06:43:54.792Z,93.50
2018-01-11T06:46:28.724Z,93.50
2018-01-11T06:49:03.380Z,93.80
2018-01-11T06:51:37.078Z,93.90
2018-01-11T06:54:10.904Z,93.70
2018-01-11T06:56:44.696Z,94.00
2018-01-11T06:59:18.553Z,94.20
2018-01-11T07:01:52.296Z,94.20
2018-01-11T07:04:26.089Z,94.30
2018-01-11T07:06:59.900Z,94.30
2018-01-11T07:09:33.711Z,94.50
2018-01-11T07:12:08.220Z,94.90
2018-01-11T07:14:42.607Z,94.80
2018-01-11T07:17:16.463Z,94.80
2018-01-11T07:19:50.255Z,94.70
2018-01-11T07:22:24.807Z,94.70
2018-01-11T07:24:58.490Z,94.60
2018-01-11T07:27:32.312Z,94.50
2018-01-11T07:30:06.156Z,94.50
2018-01-11T07:32:40.728Z,94.50
2018-01-11T07:35:14.540Z,94.50
2018-01-11T07:37:48.354Z,94.40
2018-01-11T07:40:22.937Z,94.20
2018-01-11T07:42:56.583Z,94.10
2018-01-11T07:45:30.380Z,94.10
2018-01-11T07:48:04.137Z,94.50
2018-01-11T07:50:37.972Z,94.20
2018-01-11T07:53:12.697Z,94.40
2018-01-11T07:55:46.350Z,94.50
2018-01-11T07:58:22.104Z,94.50
2018-01-11T08:00:55.860Z,94.50
2018-01-11T08:03:29.676Z,94.40
2018-01-11T08:06:05.682Z,94.40
2018-01-11T08:08:39.356Z,94.40
2018-01-11T08:11:13.076Z,94.40
2018-01-11T08:13:46.843Z,94.30
2018-01-11T08:16:20.689Z,94.40
2018-01-11T08:18:54.560Z,94.30
2018-01-11T08:21:28.396Z,94.20
2018-01-11T08:24:02.101Z,94.00
2018-01-11T08:26:36.005Z,93.80
2018-01-11T08:29:09.674Z,94.10
2018-01-11T08:31:43.536Z,94.10
2018-01-11T08:34:17.265Z,93.90
2018-01-11T08:36:51.721Z,94.00
2018-01-11T08:39:26.658Z,94.00
2018-01-11T08:42:00.461Z,94.00
2018-01-11T08:44:34.556Z,94.10
2018-01-11T08:47:08.260Z,94.20
2018-01-11T08:49:42.095Z,94.20
2018-01-11T08:52:16.893Z,94.10
2018-01-11T08:54:50.700Z,94.40
2018-01-11T08:57:25.390Z,94.10
2018-01-11T08:59:59.324Z,94.10
2018-01-11T09:02:33.965Z,94.10
2018-01-11T09:05:24.703Z,94.10
2018-01-11T09:07:58.535Z,94.30
2018-01-11T09:10:32.360Z,93.80
2018-01-11T09:13:06.841Z,93.50
2018-01-11T09:15:44.288Z,93.50
2018-01-11T09:18:21.871Z,92.80
2018-01-11T09:20:56.532Z,92.50
2018-01-11T09:23:30.320Z,92.50
2018-01-11T09:26:04.146Z,92.20
2018-01-11T09:28:37.853Z,92.00
2018-01-11T09:31:20.195Z,92.00
2018-01-11T09:33:55.437Z,91.50
2018-01-11T09:36:29.084Z,91.50
2018-01-11T09:39:03.037Z,91.50
2018-01-11T09:41:38.240Z,91.30
2018-01-11T09:44:12.820Z,91.20
2018-01-11T09:46:46.700Z,91.20
2018-01-11T09:49:21.247Z,91.00
2018-01-11T09:51:55.173Z,91.00
2018-01-11T09:54:28.800Z,91.20
2018-01-11T09:57:03.325Z,90.60
2018-01-11T10:02:05.920Z,90.60
2018-01-11T10:04:44.813Z,90.40
2018-01-11T10:07:18.692Z,90.40
2018-01-11T10:09:52.430Z,90.30
2018-01-11T10:12:27.067Z,90.10
2018-01-11T10:15:01.059Z,89.70
2018-01-11T10:17:35.001Z,89.40
2018-01-11T10:20:11.423Z,85.60
2018-01-11T10:22:45.271Z,85.60
2018-01-11T10:25:19.159Z,83.30
2018-01-11T10:27:53.723Z,77.10
2018-01-11T10:30:27.385Z,77.10
2018-01-11T10:33:01.942Z,74.70
2018-01-11T10:35:35.768Z,74.60
2018-01-11T10:38:10.269Z,73.70
2018-01-11T10:40:44.167Z,73.70
2018-01-11T10:43:18.728Z,72.50
2018-01-11T10:45:52.505Z,72.50
2018-01-11T10:48:26.393Z,70.90
2018-01-11T10:51:00.085Z,70.50
2018-01-11T10:53:34.845Z,70.10
2018-01-11T10:56:08.662Z,70.40
2018-01-11T10:58:42.452Z,71.90
2018-01-11T11:01:22.899Z,72.90
2018-01-11T11:03:56.926Z,72.70
2018-01-11T11:06:32.077Z,72.80
2018-01-11T11:09:05.812Z,71.10
2018-01-11T11:11:39.576Z,69.40
2018-01-11T11:14:13.386Z,69.20
2018-01-11T11:16:47.124Z,68.50
2018-01-11T11:19:20.877Z,69.50
2018-01-11T11:21:54.544Z,68.60
2018-01-11T11:24:28.648Z,69.10
2018-01-11T11:27:02.730Z,68.40
2018-01-11T11:29:36.540Z,68.00
2018-01-11T11:32:10.324Z,68.50
2018-01-11T11:34:44.105Z,68.50
2018-01-11T11:37:17.927Z,68.80
2018-01-11T11:39:52.868Z,68.30
2018-01-11T11:42:26.744Z,68.30
2018-01-11T11:45:00.514Z,68.20
2018-01-11T11:47:37.346Z,67.50
2018-01-11T11:50:12.366Z,67.70
2018-01-11T11:52:46.216Z,68.10
2018-01-11T11:55:21.030Z,68.40
2018-01-11T11:57:55.447Z,67.30
2018-01-11T12:00:29.956Z,66.70
2018-01-11T12:03:15.723Z,66.60
2018-01-11T12:05:50.968Z,68.10
2018-01-11T12:08:25.706Z,69.10
2018-01-11T12:10:59.540Z,69.20
2018-01-11T12:13:33.380Z,70.90
2018-01-11T12:16:07.167Z,73.00
2018-01-11T12:18:41.791Z,76.10
2018-01-11T12:21:15.531Z,76.10
2018-01-11T12:23:50.821Z,77.30
2018-01-11T12:26:25.387Z,78.00
2018-01-11T12:28:59.457Z,77.90
2018-01-11T12:31:33.292Z,77.30
2018-01-11T12:34:06.919Z,76.50
2018-01-11T12:36:40.668Z,76.90
2018-01-11T12:39:15.277Z,77.80
2018-01-11T12:41:49.129Z,77.70
2018-01-11T12:44:35.682Z,77.80
2018-01-11T12:47:09.509Z,77.80
2018-01-11T12:49:43.316Z,78.10
2018-01-11T12:52:19.174Z,78.20
2018-01-11T12:54:52.978Z,79.00
2018-01-11T12:57:26.810Z,79.30
2018-01-11T13:00:01.392Z,79.40
2018-01-11T13:02:35.162Z,79.30
2018-01-11T13:05:09.000Z,80.10
2018-01-11T13:07:43.567Z,79.40
2018-01-11T13:10:17.531Z,79.40
2018-01-11T13:12:51.497Z,80.40
2018-01-11T13:15:26.077Z,80.60
2018-01-11T13:17:59.904Z,81.10
2018-01-11T13:20:33.612Z,81.70
2018-01-11T13:23:08.449Z,81.40
2018-01-11T13:25:42.210Z,81.40
2018-01-11T13:28:15.899Z,81.50
2018-01-11T13:30:49.827Z,80.70
2018-01-11T13:33:23.559Z,81.20
2018-01-11T13:35:57.380Z,80.30
2018-01-11T13:38:31.140Z,81.10
2018-01-11T13:41:04.941Z,80.90
2018-01-11T13:43:39.546Z,81.60
2018-01-11T13:46:13.894Z,81.40
2018-01-11T13:48:47.893Z,81.40
2018-01-11T13:51:22.703Z,82.50
2018-01-11T13:53:58.096Z,82.00
2018-01-11T13:56:32.169Z,81.90
2018-01-11T13:59:05.959Z,81.30
2018-01-11T14:01:40.443Z,81.60
2018-01-11T14:04:14.189Z,81.60
2018-01-11T14:06:47.997Z,81.50
2018-01-11T14:09:22.568Z,80.20
2018-01-11T14:11:57.149Z,80.50
2018-01-11T14:14:30.970Z,80.40
2018-01-11T14:17:05.539Z,80.80
2018-01-11T14:19:39.288Z,80.80
2018-01-11T14:22:13.105Z,80.70
2018-01-11T14:24:47.310Z,80.30
2018-01-11T14:27:20.970Z,80.00
2018-01-11T14:29:54.739Z,79.70
2018-01-11T14:32:29.328Z,80.00
2018-01-11T14:35:03.132Z,80.70
2018-01-11T14:37:37.680Z,80.70
2018-01-11T14:40:11.411Z,80.70
2018-01-11T14:42:45.048Z,81.20
2018-01-11T14:45:18.799Z,81.10
2018-01-11T14:47:53.508Z,81.10
2018-01-11T14:50:28.222Z,81.80
2018-01-11T14:53:02.764Z,82.10
2018-01-11T14:55:36.592Z,81.90
2018-01-11T14:58:10.497Z,81.90
2018-01-11T15:00:44.265Z,82.40
2018-01-11T15:03:18.708Z,82.50
2018-01-11T15:05:53.386Z,82.40
2018-01-11T15:08:27.051Z,82.70
2018-01-11T15:11:02.456Z,82.90
2018-01-11T15:13:36.205Z,83.00
2018-01-11T15:16:10.005Z,83.20
2018-01-11T15:18:43.790Z,83.50
2018-01-11T15:21:17.653Z,84.00
2018-01-11T15:23:51.487Z,83.70
2018-01-11T15:26:28.031Z,84.00
2018-01-11T15:29:02.020Z,84.10
2018-01-11T15:31:35.860Z,83.80
2018-01-11T15:34:10.087Z,84.30
2018-01-11T15:36:43.653Z,84.80
2018-01-11T15:39:17.401Z,84.60
2018-01-11T15:41:52.149Z,84.60
2018-01-11T15:44:26.302Z,85.50
2018-01-11T15:47:00.082Z,85.60
2018-01-11T15:49:33.895Z,86.30
2018-01-11T15:52:07.727Z,86.60
2018-01-11T15:54:41.531Z,87.10
2018-01-11T15:57:15.315Z,86.60
2018-01-11T15:59:50.055Z,87.40
2018-01-11T16:02:23.879Z,87.30
2018-01-11T16:04:57.711Z,87.40
2018-01-11T16:07:32.180Z,87.80
2018-01-11T16:10:06.048Z,87.80
2018-01-11T16:12:39.812Z,88.50
2018-01-11T16:15:13.935Z,89.00
2018-01-11T16:17:47.696Z,89.00
2018-01-11T16:20:21.512Z,88.80
2018-01-11T16:22:55.924Z,89.70
2018-01-11T16:25:29.773Z,89.70
2018-01-11T16:28:03.690Z,89.20
2018-01-11T16:30:37.667Z,89.70
2018-01-11T16:33:11.479Z,89.60
2018-01-11T16:35:45.445Z,89.90
2018-01-11T16:38:19.262Z,90.00
2018-01-11T16:40:53.113Z,89.90
2018-01-11T16:43:26.875Z,90.00
2018-01-11T16:46:00.664Z,90.10
2018-01-11T16:48:34.413Z,90.20
2018-01-11T16:51:09.248Z,90.50
2018-01-11T16:53:43.073Z,90.50
2018-01-11T16:56:17.777Z,90.60
2018-01-11T16:58:51.517Z,90.50
2018-01-11T17:01:25.305Z,90.50
2018-01-11T17:03:59.080Z,90.70
2018-01-11T17:06:32.993Z,90.70
2018-01-11T17:09:06.772Z,90.90
2018-01-11T17:11:40.620Z,90.70
2018-01-11T17:14:14.407Z,90.90
2018-01-11T17:16:48.924Z,91.00
2018-01-11T17:19:22.718Z,91.00
2018-01-11T17:21:57.229Z,91.30
2018-01-11T17:24:31.247Z,91.20
2018-01-11T17:27:04.990Z,91.40
2018-01-11T17:29:38.913Z,91.40
2018-01-11T17:32:12.658Z,91.40
2018-01-11T17:34:47.008Z,91.50
2018-01-11T17:37:21.048Z,91.50
2018-01-11T17:39:54.751Z,91.30
2018-01-11T17:42:28.593Z,91.30
2018-01-11T17:45:02.395Z,91.10
2018-01-11T17:47:36.288Z,91.10
2018-01-11T17:50:09.970Z,91.30
2018-01-11T17:52:43.860Z,91.40
2018-01-11T17:55:18.568Z,91.60
2018-01-11T17:57:52.719Z,91.60
2018-01-11T18:00:26.472Z,91.70
2018-01-11T18:03:01.252Z,91.50
2018-01-11T18:05:35.040Z,91.50
2018-01-11T18:08:09.096Z,91.70
2018-01-11T18:10:42.930Z,91.60
2018-01-11T18:13:16.884Z,91.60
2018-01-11T18:15:50.647Z,91.70
2018-01-11T18:18:24.482Z,92.00
2018-01-11T18:20:58.626Z,92.10
2018-01-11T18:23:33.284Z,91.80
2018-01-11T18:26:09.273Z,91.20
2018-01-11T18:28:43.077Z,91.20
2018-01-11T18:31:17.021Z,91.20
2018-01-11T18:33:50.808Z,91.10
2018-01-11T18:36:24.558Z,91.20
2018-01-11T18:38:58.365Z,91.30
2018-01-11T18:41:32.717Z,91.20
2018-01-11T18:44:06.436Z,91.20
2018-01-11T18:46:40.157Z,91.30
2018-01-11T18:49:14.238Z,91.50
2018-01-11T18:51:48.013Z,91.70
2018-01-11T18:54:21.713Z,91.70
2018-01-11T18:56:56.300Z,91.70
2018-01-11T18:59:30.101Z,91.60
2018-01-11T19:02:03.979Z,91.60
2018-01-11T19:04:37.582Z,91.70
2018-01-11T19:07:11.425Z,91.60
2018-01-11T19:09:45.230Z,91.50
2018-01-11T19:12:19.740Z,91.50
2018-01-11T19:14:54.128Z,92.10
2018-01-11T19:17:28.746Z,91.90
2018-01-11T19:20:02.405Z,91.90
2018-01-11T19:22:36.276Z,91.60
2018-01-11T19:25:10.865Z,91.70
2018-01-11T19:27:44.598Z,91.70
2018-01-11T19:30:18.313Z,91.90
2018-01-11T19:32:52.141Z,91.90
2018-01-11T19:35:25.968Z,92.10
2018-01-11T19:37:59.793Z,92.20
2018-01-11T19:40:33.605Z,92.10
2018-01-11T19:43:08.391Z,91.70
2018-01-11T19:45:41.977Z,91.70
2018-01-11T19:48:16.730Z,92.00
2018-01-11T19:50:50.583Z,92.00
2018-01-11T19:53:25.156Z,92.10
2018-01-11T19:55:58.853Z,92.10
2018-01-11T19:58:33.587Z,92.20
2018-01-11T20:01:07.276Z,92.10
2018-01-11T20:03:40.947Z,92.20
2018-01-11T20:06:15.499Z,92.30
2018-01-11T20:08:49.190Z,92.20
2018-01-11T20:11:23.740Z,92.60
2018-01-11T20:13:57.532Z,92.60
2018-01-11T20:16:31.264Z,92.70
2018-01-11T20:19:05.106Z,92.60
2018-01-11T20:21:38.739Z,92.70
2018-01-11T20:24:12.522Z,92.70
2018-01-11T20:26:46.378Z,92.40
2018-01-11T20:29:20.094Z,92.40
2018-01-11T20:31:54.949Z,92.20
2018-01-11T20:34:28.787Z,92.20
2018-01-11T20:37:02.632Z,92.30
2018-01-11T20:39:37.144Z,92.50
2018-01-11T20:42:10.923Z,92.50
2018-01-11T20:44:44.720Z,92.30
2018-01-11T20:47:19.264Z,92.30
2018-01-11T20:49:53.821Z,92.30
2018-01-11T20:52:28.627Z,92.30
2018-01-11T20:55:02.495Z,92.30
2018-01-11T20:57:36.594Z,92.40
2018-01-11T21:00:10.474Z,92.20
2018-01-11T21:02:44.308Z,92.20
2018-01-11T21:05:18.871Z,92.10
2018-01-11T21:07:52.587Z,92.10
2018-01-11T21:10:26.420Z,92.00
2018-01-11T21:13:00.299Z,91.90
2018-01-11T21:15:34.051Z,91.90
2018-01-11T21:18:07.873Z,92.10
2018-01-11T21:20:41.640Z,92.10
2018-01-11T21:23:17.276Z,92.10
2018-01-11T21:25:51.778Z,91.90
2018-01-11T21:28:25.566Z,91.90
2018-01-11T21:30:59.337Z,91.80
2018-01-11T21:33:33.064Z,91.70
2018-01-11T21:36:06.820Z,92.00
2018-01-11T21:38:40.653Z,91.90
2018-01-11T21:41:14.454Z,92.00
2018-01-11T21:43:48.452Z,92.10
2018-01-11T21:46:22.150Z,92.10
2018-01-11T21:48:56.025Z,92.10
2018-01-11T21:51:29.873Z,92.10
2018-01-11T21:54:05.181Z,92.10
2018-01-11T21:56:38.885Z,92.10
2018-01-11T21:59:15.023Z,92.40
